sensor_id;sensor_type;location;lat;lon;timestamp;P1;durP1;ratioP1;P2;durP2;ratioP2
19687;SDS011;9993;52.008;4.732;2022-10-16T00:02:15;2.73;;;2.50;;
19687;SDS011;9993;52.008;4.732;2022-10-16T00:04:40;2.90;;;2.38;;
19687;SDS011;9993;52.008;4.732;2022-10-16T00:07:05;3.77;;;2.50;;
19687;SDS011;9993;52.008;4.732;2022-10-16T00:09:31;5.63;;;2.70;;
19687;SDS011;9993;52.008;4.732;2022-10-16T00:11:56;2.83;;;2.40;;
19687;SDS011;9993;52.008;4.732;2022-10-16T00:14:21;2.87;;;2.10;;
19687;SDS011;9993;52.008;4.732;2022-10-16T00:16:46;2.60;;;2.40;;
19687;SDS011;9993;52.008;4.732;2022-10-16T00:19:11;2.70;;;2.03;;
19687;SDS011;9993;52.008;4.732;2022-10-16T00:21:37;3.70;;;2.53;;
19687;SDS011;9993;52.008;4.732;2022-10-16T00:24:03;3.27;;;2.20;;
19687;SDS011;9993;52.008;4.732;2022-10-16T00:26:30;3.87;;;1.97;;
19687;SDS011;9993;52.008;4.732;2022-10-16T00:28:56;2.43;;;2.00;;
19687;SDS011;9993;52.008;4.732;2022-10-16T00:31:21;2.80;;;2.13;;
19687;SDS011;9993;52.008;4.732;2022-10-16T00:33:48;3.40;;;2.17;;
19687;SDS011;9993;52.008;4.732;2022-10-16T00:36:14;5.78;;;2.67;;
19687;SDS011;9993;52.008;4.732;2022-10-16T00:38:40;1.57;;;1.47;;
19687;SDS011;9993;52.008;4.732;2022-10-16T00:41:06;1.83;;;1.60;;
19687;SDS011;9993;52.008;4.732;2022-10-16T00:45:56;1.80;;;1.70;;
19687;SDS011;9993;52.008;4.732;2022-10-16T00:48:22;3.37;;;1.90;;
19687;SDS011;9993;52.008;4.732;2022-10-16T00:50:47;4.60;;;2.20;;
19687;SDS011;9993;52.008;4.732;2022-10-16T00:53:12;3.17;;;2.10;;
19687;SDS011;9993;52.008;4.732;2022-10-16T00:55:38;3.13;;;2.40;;
19687;SDS011;9993;52.008;4.732;2022-10-16T00:58:03;4.30;;;2.27;;
19687;SDS011;9993;52.008;4.732;2022-10-16T01:00:28;5.80;;;2.47;;
19687;SDS011;9993;52.008;4.732;2022-10-16T01:02:54;3.50;;;2.40;;
19687;SDS011;9993;52.008;4.732;2022-10-16T01:05:20;2.47;;;2.28;;
19687;SDS011;9993;52.008;4.732;2022-10-16T01:07:53;3.43;;;2.67;;
19687;SDS011;9993;52.008;4.732;2022-10-16T01:12:50;5.00;;;2.85;;
19687;SDS011;9993;52.008;4.732;2022-10-16T01:15:18;2.70;;;2.50;;
19687;SDS011;9993;52.008;4.732;2022-10-16T01:17:53;4.87;;;2.70;;
19687;SDS011;9993;52.008;4.732;2022-10-16T01:22:59;2.70;;;2.50;;
19687;SDS011;9993;52.008;4.732;2022-10-16T01:28:06;3.00;;;2.50;;
19687;SDS011;9993;52.008;4.732;2022-10-16T01:30:34;2.70;;;2.30;;
19687;SDS011;9993;52.008;4.732;2022-10-16T01:33:02;2.50;;;2.30;;
19687;SDS011;9993;52.008;4.732;2022-10-16T01:38:15;2.60;;;2.40;;
19687;SDS011;9993;52.008;4.732;2022-10-16T01:40:21;2.63;;;2.40;;
19687;SDS011;9993;52.008;4.732;2022-10-16T01:45:44;4.03;;;2.90;;
19687;SDS011;9993;52.008;4.732;2022-10-16T01:48:09;5.53;;;3.23;;
19687;SDS011;9993;52.008;4.732;2022-10-16T01:50:37;4.23;;;3.07;;
19687;SDS011;9993;52.008;4.732;2022-10-16T01:53:04;3.63;;;3.33;;
19687;SDS011;9993;52.008;4.732;2022-10-16T01:55:32;3.10;;;2.90;;
19687;SDS011;9993;52.008;4.732;2022-10-16T01:57:58;3.93;;;3.53;;
19687;SDS011;9993;52.008;4.732;2022-10-16T02:00:24;2.90;;;2.70;;
19687;SDS011;9993;52.008;4.732;2022-10-16T02:02:51;3.53;;;3.17;;
19687;SDS011;9993;52.008;4.732;2022-10-16T02:05:31;4.10;;;3.70;;
19687;SDS011;9993;52.008;4.732;2022-10-16T02:07:59;4.40;;;3.07;;
19687;SDS011;9993;52.008;4.732;2022-10-16T02:10:24;3.27;;;2.93;;
19687;SDS011;9993;52.008;4.732;2022-10-16T02:12:58;3.30;;;3.00;;
19687;SDS011;9993;52.008;4.732;2022-10-16T02:15:24;5.80;;;3.73;;
19687;SDS011;9993;52.008;4.732;2022-10-16T02:17:49;4.13;;;3.83;;
19687;SDS011;9993;52.008;4.732;2022-10-16T02:20:14;6.07;;;3.67;;
19687;SDS011;9993;52.008;4.732;2022-10-16T02:22:44;5.07;;;3.57;;
19687;SDS011;9993;52.008;4.732;2022-10-16T02:25:44;4.10;;;3.70;;
19687;SDS011;9993;52.008;4.732;2022-10-16T02:28:04;3.73;;;3.43;;
19687;SDS011;9993;52.008;4.732;2022-10-16T02:30:41;4.20;;;3.30;;
19687;SDS011;9993;52.008;4.732;2022-10-16T02:33:09;4.50;;;3.80;;
19687;SDS011;9993;52.008;4.732;2022-10-16T02:35:34;5.80;;;4.03;;
19687;SDS011;9993;52.008;4.732;2022-10-16T02:38:00;4.27;;;3.87;;
19687;SDS011;9993;52.008;4.732;2022-10-16T02:40:26;4.38;;;3.97;;
19687;SDS011;9993;52.008;4.732;2022-10-16T02:42:53;4.28;;;3.88;;
19687;SDS011;9993;52.008;4.732;2022-10-16T02:45:19;4.63;;;3.70;;
19687;SDS011;9993;52.008;4.732;2022-10-16T02:47:44;4.10;;;3.50;;
19687;SDS011;9993;52.008;4.732;2022-10-16T02:50:09;4.85;;;3.33;;
19687;SDS011;9993;52.008;4.732;2022-10-16T02:52:34;3.70;;;3.40;;
19687;SDS011;9993;52.008;4.732;2022-10-16T02:55:00;4.03;;;2.97;;
19687;SDS011;9993;52.008;4.732;2022-10-16T02:57:25;3.70;;;2.87;;
19687;SDS011;9993;52.008;4.732;2022-10-16T02:59:50;3.20;;;3.00;;
19687;SDS011;9993;52.008;4.732;2022-10-16T03:02:15;3.30;;;2.90;;
19687;SDS011;9993;52.008;4.732;2022-10-16T03:04:41;3.17;;;2.73;;
19687;SDS011;9993;52.008;4.732;2022-10-16T03:07:06;3.23;;;2.77;;
19687;SDS011;9993;52.008;4.732;2022-10-16T03:09:32;4.60;;;3.10;;
19687;SDS011;9993;52.008;4.732;2022-10-16T03:11:57;4.07;;;3.30;;
19687;SDS011;9993;52.008;4.732;2022-10-16T03:14:22;5.13;;;3.30;;
19687;SDS011;9993;52.008;4.732;2022-10-16T03:16:48;4.43;;;3.37;;
19687;SDS011;9993;52.008;4.732;2022-10-16T03:19:13;6.38;;;3.28;;
19687;SDS011;9993;52.008;4.732;2022-10-16T03:21:38;7.37;;;2.83;;
19687;SDS011;9993;52.008;4.732;2022-10-16T03:24:04;5.83;;;3.00;;
19687;SDS011;9993;52.008;4.732;2022-10-16T03:26:29;5.40;;;2.90;;
19687;SDS011;9993;52.008;4.732;2022-10-16T03:28:54;4.10;;;3.15;;
19687;SDS011;9993;52.008;4.732;2022-10-16T03:31:19;3.40;;;2.43;;
19687;SDS011;9993;52.008;4.732;2022-10-16T03:33:44;3.40;;;2.83;;
19687;SDS011;9993;52.008;4.732;2022-10-16T03:36:10;3.80;;;2.95;;
19687;SDS011;9993;52.008;4.732;2022-10-16T03:38:35;6.27;;;2.97;;
19687;SDS011;9993;52.008;4.732;2022-10-16T03:41:00;2.70;;;2.17;;
19687;SDS011;9993;52.008;4.732;2022-10-16T03:43:25;3.07;;;2.77;;
19687;SDS011;9993;52.008;4.732;2022-10-16T03:45:51;2.67;;;2.47;;
19687;SDS011;9993;52.008;4.732;2022-10-16T03:48:16;2.38;;;2.28;;
19687;SDS011;9993;52.008;4.732;2022-10-16T03:50:42;5.60;;;3.00;;
19687;SDS011;9993;52.008;4.732;2022-10-16T03:53:07;4.83;;;2.50;;
19687;SDS011;9993;52.008;4.732;2022-10-16T03:55:32;3.85;;;2.90;;
19687;SDS011;9993;52.008;4.732;2022-10-16T03:57:57;3.10;;;2.47;;
19687;SDS011;9993;52.008;4.732;2022-10-16T04:00:22;4.05;;;2.42;;
19687;SDS011;9993;52.008;4.732;2022-10-16T04:02:47;2.40;;;2.30;;
19687;SDS011;9993;52.008;4.732;2022-10-16T04:05:13;2.70;;;2.50;;
19687;SDS011;9993;52.008;4.732;2022-10-16T04:07:38;4.22;;;2.65;;
19687;SDS011;9993;52.008;4.732;2022-10-16T04:10:03;4.93;;;2.63;;
19687;SDS011;9993;52.008;4.732;2022-10-16T04:12:29;4.60;;;2.70;;
19687;SDS011;9993;52.008;4.732;2022-10-16T04:14:54;4.13;;;2.60;;
19687;SDS011;9993;52.008;4.732;2022-10-16T04:17:19;3.07;;;2.57;;
19687;SDS011;9993;52.008;4.732;2022-10-16T04:19:44;3.97;;;2.60;;
19687;SDS011;9993;52.008;4.732;2022-10-16T04:22:09;5.10;;;3.10;;
19687;SDS011;9993;52.008;4.732;2022-10-16T04:24:35;4.77;;;2.87;;
19687;SDS011;9993;52.008;4.732;2022-10-16T04:27:00;4.10;;;2.57;;
19687;SDS011;9993;52.008;4.732;2022-10-16T04:29:25;3.77;;;2.90;;
19687;SDS011;9993;52.008;4.732;2022-10-16T04:31:50;2.70;;;2.50;;
19687;SDS011;9993;52.008;4.732;2022-10-16T04:34:15;4.70;;;2.73;;
19687;SDS011;9993;52.008;4.732;2022-10-16T04:36:41;4.67;;;2.80;;
19687;SDS011;9993;52.008;4.732;2022-10-16T04:39:06;5.77;;;2.90;;
19687;SDS011;9993;52.008;4.732;2022-10-16T04:41:31;4.03;;;3.07;;
19687;SDS011;9993;52.008;4.732;2022-10-16T04:43:56;5.93;;;3.23;;
19687;SDS011;9993;52.008;4.732;2022-10-16T04:46:21;2.90;;;2.70;;
19687;SDS011;9993;52.008;4.732;2022-10-16T04:48:46;3.60;;;2.83;;
19687;SDS011;9993;52.008;4.732;2022-10-16T04:51:12;4.20;;;2.90;;
19687;SDS011;9993;52.008;4.732;2022-10-16T04:53:37;4.50;;;2.87;;
19687;SDS011;9993;52.008;4.732;2022-10-16T04:56:02;4.77;;;2.90;;
19687;SDS011;9993;52.008;4.732;2022-10-16T04:58:28;4.47;;;3.23;;
19687;SDS011;9993;52.008;4.732;2022-10-16T05:00:53;3.17;;;2.97;;
19687;SDS011;9993;52.008;4.732;2022-10-16T05:03:18;5.40;;;2.80;;
19687;SDS011;9993;52.008;4.732;2022-10-16T05:05:44;3.27;;;2.70;;
19687;SDS011;9993;52.008;4.732;2022-10-16T05:08:10;4.07;;;3.20;;
19687;SDS011;9993;52.008;4.732;2022-10-16T05:10:35;3.67;;;3.10;;
19687;SDS011;9993;52.008;4.732;2022-10-16T05:13:00;3.42;;;2.67;;
19687;SDS011;9993;52.008;4.732;2022-10-16T05:15:26;4.23;;;2.90;;
19687;SDS011;9993;52.008;4.732;2022-10-16T05:17:54;7.23;;;3.53;;
19687;SDS011;9993;52.008;4.732;2022-10-16T05:20:19;4.07;;;2.80;;
19687;SDS011;9993;52.008;4.732;2022-10-16T05:22:44;4.77;;;2.80;;
19687;SDS011;9993;52.008;4.732;2022-10-16T05:25:10;5.53;;;2.97;;
19687;SDS011;9993;52.008;4.732;2022-10-16T05:27:35;3.03;;;2.78;;
19687;SDS011;9993;52.008;4.732;2022-10-16T05:30:00;6.75;;;3.03;;
19687;SDS011;9993;52.008;4.732;2022-10-16T05:32:25;3.15;;;2.67;;
19687;SDS011;9993;52.008;4.732;2022-10-16T05:34:51;4.97;;;2.95;;
19687;SDS011;9993;52.008;4.732;2022-10-16T05:37:16;3.25;;;2.92;;
19687;SDS011;9993;52.008;4.732;2022-10-16T05:39:41;3.73;;;3.10;;
19687;SDS011;9993;52.008;4.732;2022-10-16T05:42:06;3.00;;;2.70;;
19687;SDS011;9993;52.008;4.732;2022-10-16T05:44:32;4.90;;;2.80;;
19687;SDS011;9993;52.008;4.732;2022-10-16T05:46:57;3.53;;;2.80;;
19687;SDS011;9993;52.008;4.732;2022-10-16T05:49:22;4.70;;;3.00;;
19687;SDS011;9993;52.008;4.732;2022-10-16T05:51:47;3.13;;;2.83;;
19687;SDS011;9993;52.008;4.732;2022-10-16T05:54:12;5.07;;;2.97;;
19687;SDS011;9993;52.008;4.732;2022-10-16T05:56:38;3.23;;;2.90;;
19687;SDS011;9993;52.008;4.732;2022-10-16T05:59:03;5.73;;;2.80;;
19687;SDS011;9993;52.008;4.732;2022-10-16T06:01:29;3.40;;;2.75;;
19687;SDS011;9993;52.008;4.732;2022-10-16T06:03:54;5.67;;;3.07;;
19687;SDS011;9993;52.008;4.732;2022-10-16T06:06:20;6.07;;;2.93;;
19687;SDS011;9993;52.008;4.732;2022-10-16T06:08:46;6.30;;;2.90;;
19687;SDS011;9993;52.008;4.732;2022-10-16T06:11:13;4.60;;;2.80;;
19687;SDS011;9993;52.008;4.732;2022-10-16T06:13:38;4.07;;;2.70;;
19687;SDS011;9993;52.008;4.732;2022-10-16T06:16:06;6.43;;;3.10;;
19687;SDS011;9993;52.008;4.732;2022-10-16T06:18:32;3.10;;;2.80;;
19687;SDS011;9993;52.008;4.732;2022-10-16T06:20:57;5.28;;;2.80;;
19687;SDS011;9993;52.008;4.732;2022-10-16T06:23:23;3.67;;;2.80;;
19687;SDS011;9993;52.008;4.732;2022-10-16T06:25:48;5.00;;;2.40;;
19687;SDS011;9993;52.008;4.732;2022-10-16T06:28:14;3.23;;;2.33;;
19687;SDS011;9993;52.008;4.732;2022-10-16T06:30:39;3.60;;;2.15;;
19687;SDS011;9993;52.008;4.732;2022-10-16T06:33:04;5.93;;;2.33;;
19687;SDS011;9993;52.008;4.732;2022-10-16T06:35:30;3.33;;;2.10;;
19687;SDS011;9993;52.008;4.732;2022-10-16T06:37:56;3.78;;;1.75;;
19687;SDS011;9993;52.008;4.732;2022-10-16T06:40:22;4.38;;;1.88;;
19687;SDS011;9993;52.008;4.732;2022-10-16T06:42:47;3.13;;;1.70;;
19687;SDS011;9993;52.008;4.732;2022-10-16T06:45:12;2.45;;;1.60;;
19687;SDS011;9993;52.008;4.732;2022-10-16T06:47:37;3.70;;;2.00;;
19687;SDS011;9993;52.008;4.732;2022-10-16T06:50:03;3.23;;;1.70;;
19687;SDS011;9993;52.008;4.732;2022-10-16T06:52:28;4.32;;;1.88;;
19687;SDS011;9993;52.008;4.732;2022-10-16T06:54:54;4.82;;;1.70;;
19687;SDS011;9993;52.008;4.732;2022-10-16T06:57:19;2.23;;;1.70;;
19687;SDS011;9993;52.008;4.732;2022-10-16T06:59:44;2.20;;;2.00;;
19687;SDS011;9993;52.008;4.732;2022-10-16T07:02:09;5.07;;;2.05;;
19687;SDS011;9993;52.008;4.732;2022-10-16T07:04:35;4.78;;;2.72;;
19687;SDS011;9993;52.008;4.732;2022-10-16T07:07:00;2.30;;;1.95;;
19687;SDS011;9993;52.008;4.732;2022-10-16T07:09:25;4.65;;;2.45;;
19687;SDS011;9993;52.008;4.732;2022-10-16T07:11:51;4.13;;;2.07;;
19687;SDS011;9993;52.008;4.732;2022-10-16T07:14:17;4.03;;;2.07;;
19687;SDS011;9993;52.008;4.732;2022-10-16T07:16:43;2.67;;;2.30;;
19687;SDS011;9993;52.008;4.732;2022-10-16T07:19:08;5.07;;;2.23;;
19687;SDS011;9993;52.008;4.732;2022-10-16T07:21:34;3.00;;;1.85;;
19687;SDS011;9993;52.008;4.732;2022-10-16T07:24:02;2.97;;;2.27;;
19687;SDS011;9993;52.008;4.732;2022-10-16T07:26:32;5.93;;;2.00;;
19687;SDS011;9993;52.008;4.732;2022-10-16T07:28:57;3.90;;;2.23;;
19687;SDS011;9993;52.008;4.732;2022-10-16T07:31:23;3.10;;;2.30;;
19687;SDS011;9993;52.008;4.732;2022-10-16T07:33:48;9.20;;;2.40;;
19687;SDS011;9993;52.008;4.732;2022-10-16T07:36:14;3.27;;;2.30;;
19687;SDS011;9993;52.008;4.732;2022-10-16T07:38:39;5.37;;;2.67;;
19687;SDS011;9993;52.008;4.732;2022-10-16T07:41:08;4.37;;;2.83;;
19687;SDS011;9993;52.008;4.732;2022-10-16T07:43:34;3.53;;;2.72;;
19687;SDS011;9993;52.008;4.732;2022-10-16T07:45:59;4.17;;;2.53;;
19687;SDS011;9993;52.008;4.732;2022-10-16T07:48:26;4.33;;;2.90;;
19687;SDS011;9993;52.008;4.732;2022-10-16T07:50:52;5.33;;;2.80;;
19687;SDS011;9993;52.008;4.732;2022-10-16T07:53:17;3.97;;;2.60;;
19687;SDS011;9993;52.008;4.732;2022-10-16T07:55:42;2.50;;;2.30;;
19687;SDS011;9993;52.008;4.732;2022-10-16T07:58:08;3.35;;;2.20;;
19687;SDS011;9993;52.008;4.732;2022-10-16T08:00:33;5.72;;;2.63;;
19687;SDS011;9993;52.008;4.732;2022-10-16T08:02:58;3.85;;;2.63;;
19687;SDS011;9993;52.008;4.732;2022-10-16T08:05:27;5.00;;;2.28;;
19687;SDS011;9993;52.008;4.732;2022-10-16T08:07:53;6.35;;;2.90;;
19687;SDS011;9993;52.008;4.732;2022-10-16T08:10:18;3.45;;;2.40;;
19687;SDS011;9993;52.008;4.732;2022-10-16T08:12:44;2.90;;;2.25;;
19687;SDS011;9993;52.008;4.732;2022-10-16T08:15:09;3.83;;;2.17;;
19687;SDS011;9993;52.008;4.732;2022-10-16T08:17:35;4.85;;;2.50;;
19687;SDS011;9993;52.008;4.732;2022-10-16T08:20:00;2.55;;;2.10;;
19687;SDS011;9993;52.008;4.732;2022-10-16T08:22:26;2.70;;;1.80;;
19687;SDS011;9993;52.008;4.732;2022-10-16T08:24:51;4.72;;;2.20;;
19687;SDS011;9993;52.008;4.732;2022-10-16T08:27:17;3.80;;;2.13;;
19687;SDS011;9993;52.008;4.732;2022-10-16T08:29:42;6.43;;;2.30;;
19687;SDS011;9993;52.008;4.732;2022-10-16T08:32:07;6.20;;;2.17;;
19687;SDS011;9993;52.008;4.732;2022-10-16T08:34:32;3.13;;;2.03;;
19687;SDS011;9993;52.008;4.732;2022-10-16T08:36:57;4.47;;;2.00;;
19687;SDS011;9993;52.008;4.732;2022-10-16T08:39:22;4.80;;;1.85;;
19687;SDS011;9993;52.008;4.732;2022-10-16T08:47:08;3.30;;;1.92;;
19687;SDS011;9993;52.008;4.732;2022-10-16T08:49:37;8.02;;;2.10;;
19687;SDS011;9993;52.008;4.732;2022-10-16T08:52:04;4.15;;;2.30;;
19687;SDS011;9993;52.008;4.732;2022-10-16T08:54:41;3.25;;;1.98;;
19687;SDS011;9993;52.008;4.732;2022-10-16T08:57:14;4.43;;;1.90;;
19687;SDS011;9993;52.008;4.732;2022-10-16T08:59:41;3.88;;;2.10;;
19687;SDS011;9993;52.008;4.732;2022-10-16T09:10:17;6.97;;;2.22;;
19687;SDS011;9993;52.008;4.732;2022-10-16T09:12:51;8.27;;;2.67;;
19687;SDS011;9993;52.008;4.732;2022-10-16T09:18:22;4.20;;;2.40;;
19687;SDS011;9993;52.008;4.732;2022-10-16T09:23:26;5.88;;;2.60;;
19687;SDS011;9993;52.008;4.732;2022-10-16T09:25:52;5.68;;;2.28;;
19687;SDS011;9993;52.008;4.732;2022-10-16T09:28:17;5.28;;;2.25;;
19687;SDS011;9993;52.008;4.732;2022-10-16T09:30:43;6.38;;;2.55;;
19687;SDS011;9993;52.008;4.732;2022-10-16T09:33:09;5.38;;;2.22;;
19687;SDS011;9993;52.008;4.732;2022-10-16T09:38:00;6.10;;;2.83;;
19687;SDS011;9993;52.008;4.732;2022-10-16T09:40:29;7.00;;;2.28;;
19687;SDS011;9993;52.008;4.732;2022-10-16T09:45:58;7.65;;;2.33;;
19687;SDS011;9993;52.008;4.732;2022-10-16T09:48:24;6.18;;;2.63;;
19687;SDS011;9993;52.008;4.732;2022-10-16T09:51:00;5.95;;;2.58;;
19687;SDS011;9993;52.008;4.732;2022-10-16T09:53:37;9.32;;;2.42;;
19687;SDS011;9993;52.008;4.732;2022-10-16T09:56:03;7.85;;;2.60;;
19687;SDS011;9993;52.008;4.732;2022-10-16T09:58:31;4.90;;;2.58;;
19687;SDS011;9993;52.008;4.732;2022-10-16T10:00:58;7.30;;;2.45;;
19687;SDS011;9993;52.008;4.732;2022-10-16T10:03:30;7.28;;;2.42;;
19687;SDS011;9993;52.008;4.732;2022-10-16T10:05:57;4.90;;;2.65;;
19687;SDS011;9993;52.008;4.732;2022-10-16T10:08:22;5.88;;;2.70;;
19687;SDS011;9993;52.008;4.732;2022-10-16T10:10:48;9.10;;;2.95;;
19687;SDS011;9993;52.008;4.732;2022-10-16T10:13:20;7.53;;;2.45;;
19687;SDS011;9993;52.008;4.732;2022-10-16T10:15:45;4.30;;;2.08;;
19687;SDS011;9993;52.008;4.732;2022-10-16T10:18:21;5.25;;;2.72;;
19687;SDS011;9993;52.008;4.732;2022-10-16T10:20:56;4.57;;;2.35;;
19687;SDS011;9993;52.008;4.732;2022-10-16T10:23:22;5.18;;;2.13;;
19687;SDS011;9993;52.008;4.732;2022-10-16T10:36:22;3.58;;;1.98;;
19687;SDS011;9993;52.008;4.732;2022-10-16T10:38:52;3.22;;;1.95;;
19687;SDS011;9993;52.008;4.732;2022-10-16T10:43:49;10.13;;;2.75;;
19687;SDS011;9993;52.008;4.732;2022-10-16T10:46:20;6.63;;;2.38;;
19687;SDS011;9993;52.008;4.732;2022-10-16T10:51:36;6.00;;;1.93;;
19687;SDS011;9993;52.008;4.732;2022-10-16T10:56:43;7.25;;;3.00;;
19687;SDS011;9993;52.008;4.732;2022-10-16T11:02:00;8.07;;;2.08;;
19687;SDS011;9993;52.008;4.732;2022-10-16T11:09:39;5.57;;;2.10;;
19687;SDS011;9993;52.008;4.732;2022-10-16T11:14:42;5.72;;;1.83;;
19687;SDS011;9993;52.008;4.732;2022-10-16T11:25:27;6.28;;;1.65;;
19687;SDS011;9993;52.008;4.732;2022-10-16T11:30:22;5.13;;;1.47;;
19687;SDS011;9993;52.008;4.732;2022-10-16T11:32:52;6.10;;;2.00;;
19687;SDS011;9993;52.008;4.732;2022-10-16T11:35:24;4.03;;;1.55;;
19687;SDS011;9993;52.008;4.732;2022-10-16T11:37:50;5.07;;;1.73;;
19687;SDS011;9993;52.008;4.732;2022-10-16T11:40:29;7.85;;;1.67;;
19687;SDS011;9993;52.008;4.732;2022-10-16T11:42:59;4.57;;;1.50;;
19687;SDS011;9993;52.008;4.732;2022-10-16T11:45:36;4.90;;;1.63;;
19687;SDS011;9993;52.008;4.732;2022-10-16T11:49:08;5.97;;;1.80;;
19687;SDS011;9993;52.008;4.732;2022-10-16T11:51:02;5.40;;;2.08;;
19687;SDS011;9993;52.008;4.732;2022-10-16T11:53:45;7.28;;;2.00;;
19687;SDS011;9993;52.008;4.732;2022-10-16T11:56:15;6.55;;;2.08;;
19687;SDS011;9993;52.008;4.732;2022-10-16T11:58:44;4.82;;;1.73;;
19687;SDS011;9993;52.008;4.732;2022-10-16T12:01:26;4.97;;;1.50;;
19687;SDS011;9993;52.008;4.732;2022-10-16T12:03:59;3.72;;;1.30;;
19687;SDS011;9993;52.008;4.732;2022-10-16T12:09:22;3.92;;;1.77;;
19687;SDS011;9993;52.008;4.732;2022-10-16T12:11:49;5.18;;;1.60;;
19687;SDS011;9993;52.008;4.732;2022-10-16T12:19:17;6.72;;;1.80;;
19687;SDS011;9993;52.008;4.732;2022-10-16T12:21:43;3.25;;;1.58;;
19687;SDS011;9993;52.008;4.732;2022-10-16T12:24:31;4.82;;;1.77;;
19687;SDS011;9993;52.008;4.732;2022-10-16T12:26:57;2.28;;;1.58;;
19687;SDS011;9993;52.008;4.732;2022-10-16T12:31:53;7.28;;;2.45;;
19687;SDS011;9993;52.008;4.732;2022-10-16T12:34:22;6.57;;;1.95;;
19687;SDS011;9993;52.008;4.732;2022-10-16T12:36:48;9.73;;;2.35;;
19687;SDS011;9993;52.008;4.732;2022-10-16T12:39:20;9.02;;;2.25;;
19687;SDS011;9993;52.008;4.732;2022-10-16T12:41:46;4.70;;;1.88;;
19687;SDS011;9993;52.008;4.732;2022-10-16T12:44:23;5.38;;;1.80;;
19687;SDS011;9993;52.008;4.732;2022-10-16T12:46:49;6.28;;;1.63;;
19687;SDS011;9993;52.008;4.732;2022-10-16T12:49:21;5.63;;;1.98;;
19687;SDS011;9993;52.008;4.732;2022-10-16T12:51:47;4.75;;;2.42;;
19687;SDS011;9993;52.008;4.732;2022-10-16T12:54:17;6.68;;;1.85;;
19687;SDS011;9993;52.008;4.732;2022-10-16T12:56:51;3.60;;;1.50;;
19687;SDS011;9993;52.008;4.732;2022-10-16T13:07:14;6.15;;;2.20;;
19687;SDS011;9993;52.008;4.732;2022-10-16T13:10:02;7.30;;;2.13;;
19687;SDS011;9993;52.008;4.732;2022-10-16T13:15:06;4.20;;;1.40;;
19687;SDS011;9993;52.008;4.732;2022-10-16T13:22:41;6.80;;;2.05;;
19687;SDS011;9993;52.008;4.732;2022-10-16T13:28:01;5.22;;;1.80;;
19687;SDS011;9993;52.008;4.732;2022-10-16T13:30:30;5.50;;;1.40;;
19687;SDS011;9993;52.008;4.732;2022-10-16T13:33:00;6.50;;;1.60;;
19687;SDS011;9993;52.008;4.732;2022-10-16T13:35:27;4.03;;;1.83;;
19687;SDS011;9993;52.008;4.732;2022-10-16T13:40:52;2.90;;;1.55;;
19687;SDS011;9993;52.008;4.732;2022-10-16T13:43:18;4.10;;;1.73;;
19687;SDS011;9993;52.008;4.732;2022-10-16T13:45:52;7.32;;;1.80;;
19687;SDS011;9993;52.008;4.732;2022-10-16T13:48:17;5.57;;;2.10;;
19687;SDS011;9993;52.008;4.732;2022-10-16T13:50:42;6.40;;;1.83;;
19687;SDS011;9993;52.008;4.732;2022-10-16T13:53:13;10.27;;;2.25;;
19687;SDS011;9993;52.008;4.732;2022-10-16T13:55:38;6.55;;;2.30;;
19687;SDS011;9993;52.008;4.732;2022-10-16T13:58:05;6.03;;;1.83;;
19687;SDS011;9993;52.008;4.732;2022-10-16T14:00:30;7.50;;;1.85;;
19687;SDS011;9993;52.008;4.732;2022-10-16T14:03:07;4.88;;;1.65;;
19687;SDS011;9993;52.008;4.732;2022-10-16T14:05:32;6.43;;;1.92;;
19687;SDS011;9993;52.008;4.732;2022-10-16T14:07:58;6.22;;;1.80;;
19687;SDS011;9993;52.008;4.732;2022-10-16T14:10:30;4.35;;;1.80;;
19687;SDS011;9993;52.008;4.732;2022-10-16T14:13:05;6.22;;;2.25;;
19687;SDS011;9993;52.008;4.732;2022-10-16T14:15:32;7.05;;;2.10;;
19687;SDS011;9993;52.008;4.732;2022-10-16T14:17:57;5.60;;;1.67;;
19687;SDS011;9993;52.008;4.732;2022-10-16T14:20:24;9.65;;;2.05;;
19687;SDS011;9993;52.008;4.732;2022-10-16T14:22:57;3.58;;;1.95;;
19687;SDS011;9993;52.008;4.732;2022-10-16T14:25:24;6.63;;;1.90;;
19687;SDS011;9993;52.008;4.732;2022-10-16T14:28:26;4.10;;;1.80;;
19687;SDS011;9993;52.008;4.732;2022-10-16T14:30:54;6.57;;;2.00;;
19687;SDS011;9993;52.008;4.732;2022-10-16T14:33:24;6.03;;;1.73;;
19687;SDS011;9993;52.008;4.732;2022-10-16T14:36:00;4.07;;;1.75;;
19687;SDS011;9993;52.008;4.732;2022-10-16T14:38:25;6.60;;;1.52;;
19687;SDS011;9993;52.008;4.732;2022-10-16T14:40:51;4.82;;;1.88;;
19687;SDS011;9993;52.008;4.732;2022-10-16T14:43:26;6.53;;;2.08;;
19687;SDS011;9993;52.008;4.732;2022-10-16T14:45:53;7.60;;;2.13;;
19687;SDS011;9993;52.008;4.732;2022-10-16T14:48:19;3.95;;;1.90;;
19687;SDS011;9993;52.008;4.732;2022-10-16T14:50:45;6.32;;;1.95;;
19687;SDS011;9993;52.008;4.732;2022-10-16T14:53:11;7.72;;;2.17;;
19687;SDS011;9993;52.008;4.732;2022-10-16T14:55:36;7.20;;;1.83;;
19687;SDS011;9993;52.008;4.732;2022-10-16T14:58:01;10.63;;;3.45;;
19687;SDS011;9993;52.008;4.732;2022-10-16T15:00:27;3.08;;;1.73;;
19687;SDS011;9993;52.008;4.732;2022-10-16T15:02:52;8.80;;;2.00;;
19687;SDS011;9993;52.008;4.732;2022-10-16T15:05:26;5.18;;;1.92;;
19687;SDS011;9993;52.008;4.732;2022-10-16T15:07:53;6.18;;;2.20;;
19687;SDS011;9993;52.008;4.732;2022-10-16T15:10:18;6.47;;;1.83;;
19687;SDS011;9993;52.008;4.732;2022-10-16T15:12:44;6.45;;;2.30;;
19687;SDS011;9993;52.008;4.732;2022-10-16T15:17:47;5.80;;;2.45;;
19687;SDS011;9993;52.008;4.732;2022-10-16T15:20:13;5.80;;;2.13;;
19687;SDS011;9993;52.008;4.732;2022-10-16T15:22:38;4.82;;;2.15;;
19687;SDS011;9993;52.008;4.732;2022-10-16T15:25:08;4.75;;;1.95;;
19687;SDS011;9993;52.008;4.732;2022-10-16T15:27:35;6.93;;;2.22;;
19687;SDS011;9993;52.008;4.732;2022-10-16T15:30:05;4.05;;;2.00;;
19687;SDS011;9993;52.008;4.732;2022-10-16T15:32:30;9.52;;;2.13;;
19687;SDS011;9993;52.008;4.732;2022-10-16T15:34:55;8.95;;;2.20;;
19687;SDS011;9993;52.008;4.732;2022-10-16T15:37:20;5.65;;;1.70;;
19687;SDS011;9993;52.008;4.732;2022-10-16T15:39:45;7.28;;;2.20;;
19687;SDS011;9993;52.008;4.732;2022-10-16T15:42:11;6.18;;;1.88;;
19687;SDS011;9993;52.008;4.732;2022-10-16T15:44:36;8.07;;;2.65;;
19687;SDS011;9993;52.008;4.732;2022-10-16T15:47:01;6.57;;;2.20;;
19687;SDS011;9993;52.008;4.732;2022-10-16T15:49:26;7.38;;;2.25;;
19687;SDS011;9993;52.008;4.732;2022-10-16T15:51:51;5.80;;;1.83;;
19687;SDS011;9993;52.008;4.732;2022-10-16T15:54:18;5.00;;;1.95;;
19687;SDS011;9993;52.008;4.732;2022-10-16T15:56:46;6.10;;;1.88;;
19687;SDS011;9993;52.008;4.732;2022-10-16T15:59:11;5.13;;;2.70;;
19687;SDS011;9993;52.008;4.732;2022-10-16T16:01:37;5.75;;;2.10;;
19687;SDS011;9993;52.008;4.732;2022-10-16T16:04:02;7.93;;;2.20;;
19687;SDS011;9993;52.008;4.732;2022-10-16T16:06:29;8.18;;;2.30;;
19687;SDS011;9993;52.008;4.732;2022-10-16T16:08:54;6.88;;;1.92;;
19687;SDS011;9993;52.008;4.732;2022-10-16T16:11:19;5.68;;;2.00;;
19687;SDS011;9993;52.008;4.732;2022-10-16T16:13:45;11.90;;;2.35;;
19687;SDS011;9993;52.008;4.732;2022-10-16T16:16:11;6.28;;;2.20;;
19687;SDS011;9993;52.008;4.732;2022-10-16T16:18:37;7.43;;;2.60;;
19687;SDS011;9993;52.008;4.732;2022-10-16T16:21:03;6.20;;;2.30;;
19687;SDS011;9993;52.008;4.732;2022-10-16T16:23:28;4.72;;;2.58;;
19687;SDS011;9993;52.008;4.732;2022-10-16T16:28:34;11.43;;;3.40;;
19687;SDS011;9993;52.008;4.732;2022-10-16T16:31:00;6.88;;;3.40;;
19687;SDS011;9993;52.008;4.732;2022-10-16T16:33:25;8.32;;;3.88;;
19687;SDS011;9993;52.008;4.732;2022-10-16T16:35:55;10.85;;;2.95;;
19687;SDS011;9993;52.008;4.732;2022-10-16T16:38:20;9.95;;;3.60;;
19687;SDS011;9993;52.008;4.732;2022-10-16T16:40:45;9.27;;;3.50;;
19687;SDS011;9993;52.008;4.732;2022-10-16T16:43:10;9.13;;;3.80;;
19687;SDS011;9993;52.008;4.732;2022-10-16T16:45:36;8.43;;;3.80;;
19687;SDS011;9993;52.008;4.732;2022-10-16T16:48:01;10.07;;;4.55;;
19687;SDS011;9993;52.008;4.732;2022-10-16T16:50:26;7.97;;;4.20;;
19687;SDS011;9993;52.008;4.732;2022-10-16T16:52:51;9.35;;;3.78;;
19687;SDS011;9993;52.008;4.732;2022-10-16T16:55:16;11.00;;;3.58;;
19687;SDS011;9993;52.008;4.732;2022-10-16T16:57:42;10.90;;;3.88;;